This is the latest recevied weather packets stored in our database for station/object EA1GGY-1. If no packets are shown the sender has not sent any weather packets the latest 10 day(s).
| Time | Temp. | Humidity | Pressure | Rain* | Wind** | Luminosity | Snow |
|---|---|---|---|---|---|---|---|
| 1777804142 | 11.67° C | 75% | 1008.2 hPa | - | - | - | - |
| 1777803541 | 11.67° C | 72% | 1008.2 hPa | - | - | - | - |
| 1777802940 | 12.22° C | 69% | 1008.2 hPa | - | - | - | - |
| 1777802341 | 11.67° C | 73% | 1008.1 hPa | - | - | - | - |
| 1777801738 | 11.11° C | 73% | 1008.2 hPa | - | - | - | - |
| 1777801137 | 11.67° C | 72% | 1008.1 hPa | - | - | - | - |
| 1777800537 | 12.22° C | 68% | 1008.2 hPa | - | - | - | - |
| 1777799936 | 11.11° C | 73% | 1008.3 hPa | - | - | - | - |
| 1777799335 | 11.11° C | 72% | 1008.3 hPa | - | - | - | - |
| 1777798734 | 12.22° C | 72% | 1008.5 hPa | - | - | - | - |
| 1777798133 | 11.67° C | 72% | 1008.4 hPa | - | - | - | - |
| 1777797533 | 11.67° C | 74% | 1008.4 hPa | - | - | - | - |
| 1777796932 | 11.11° C | 78% | 1008.6 hPa | - | - | - | - |
| 1777796333 | 10.56° C | 77% | 1008.6 hPa | - | - | - | - |
| 1777795730 | 10° C | 77% | 1008.5 hPa | - | - | - | - |
| 1777795130 | 10° C | 77% | 1008.5 hPa | - | - | - | - |
| 1777794530 | 10° C | 77% | 1008.5 hPa | - | - | - | - |
| 1777793928 | 10° C | 78% | 1008.4 hPa | - | - | - | - |
| 1777793327 | 9.44° C | 78% | 1008.4 hPa | - | - | - | - |
| 1777792727 | 9.44° C | 80% | 1008.3 hPa | - | - | - | - |
| 1777792126 | 9.44° C | 80% | 1008.3 hPa | - | - | - | - |
| 1777791524 | 9.44° C | 81% | 1008.3 hPa | - | - | - | - |
| 1777790923 | 8.89° C | 80% | 1008.3 hPa | - | - | - | - |
| 1777790322 | 8.89° C | 80% | 1008.2 hPa | - | - | - | - |
| 1777789723 | 8.89° C | 81% | 1008.2 hPa | - | - | - | - |
* Rain since midnight (hover to see other rain measurements)
** Current wind speed in m/s (hover to see current wind gust speed)